sensor_id;sensor_type;location;lat;lon;timestamp;temperature;humidity
63899;HTU21D;50070;-32.946;-60.652;2022-11-15T00:02:17;24.89;30.93
63899;HTU21D;50070;-32.946;-60.652;2022-11-15T00:04:43;24.84;31.06
63899;HTU21D;50070;-32.946;-60.652;2022-11-15T00:07:09;24.77;31.45
63899;HTU21D;50070;-32.946;-60.652;2022-11-15T00:09:36;24.72;31.73
63899;HTU21D;50070;-32.946;-60.652;2022-11-15T00:12:03;24.69;31.63
63899;HTU21D;50070;-32.946;-60.652;2022-11-15T00:14:30;24.75;31.38
63899;HTU21D;50070;-32.946;-60.652;2022-11-15T00:16:56;24.58;31.54
63899;HTU21D;50070;-32.946;-60.652;2022-11-15T00:19:23;24.60;31.56
63899;HTU21D;50070;-32.946;-60.652;2022-11-15T00:21:53;24.56;31.48
63899;HTU21D;50070;-32.946;-60.652;2022-11-15T00:24:20;24.73;31.54
63899;HTU21D;50070;-32.946;-60.652;2022-11-15T00:26:46;24.71;31.32
63899;HTU21D;50070;-32.946;-60.652;2022-11-15T00:29:13;24.62;31.75
63899;HTU21D;50070;-32.946;-60.652;2022-11-15T00:31:42;24.61;31.54
63899;HTU21D;50070;-32.946;-60.652;2022-11-15T00:34:10;24.56;31.76
63899;HTU21D;50070;-32.946;-60.652;2022-11-15T00:36:36;24.69;31.54
63899;HTU21D;50070;-32.946;-60.652;2022-11-15T00:39:06;24.64;31.64
63899;HTU21D;50070;-32.946;-60.652;2022-11-15T00:41:33;24.30;31.99
63899;HTU21D;50070;-32.946;-60.652;2022-11-15T00:44:00;24.31;32.20
63899;HTU21D;50070;-32.946;-60.652;2022-11-15T00:46:26;24.28;32.46
63899;HTU21D;50070;-32.946;-60.652;2022-11-15T00:48:53;24.33;32.40
63899;HTU21D;50070;-32.946;-60.652;2022-11-15T00:51:19;24.41;32.19
63899;HTU21D;50070;-32.946;-60.652;2022-11-15T00:53:46;24.34;32.90
63899;HTU21D;50070;-32.946;-60.652;2022-11-15T00:56:13;24.58;32.45
63899;HTU21D;50070;-32.946;-60.652;2022-11-15T00:58:39;24.49;32.57
63899;HTU21D;50070;-32.946;-60.652;2022-11-15T01:01:08;24.02;33.28
63899;HTU21D;50070;-32.946;-60.652;2022-11-15T01:03:36;23.98;33.51
63899;HTU21D;50070;-32.946;-60.652;2022-11-15T01:06:03;23.94;33.49
63899;HTU21D;50070;-32.946;-60.652;2022-11-15T01:08:30;24.05;33.63
63899;HTU21D;50070;-32.946;-60.652;2022-11-15T01:11:09;24.01;33.31
63899;HTU21D;50070;-32.946;-60.652;2022-11-15T01:13:36;24.03;33.40
63899;HTU21D;50070;-32.946;-60.652;2022-11-15T01:16:13;24.04;33.38
63899;HTU21D;50070;-32.946;-60.652;2022-11-15T01:18:40;23.74;34.12
63899;HTU21D;50070;-32.946;-60.652;2022-11-15T01:21:09;23.99;33.67
63899;HTU21D;50070;-32.946;-60.652;2022-11-15T01:23:36;23.90;34.03
63899;HTU21D;50070;-32.946;-60.652;2022-11-15T01:26:05;23.56;34.59
63899;HTU21D;50070;-32.946;-60.652;2022-11-15T01:28:33;23.60;34.69
63899;HTU21D;50070;-32.946;-60.652;2022-11-15T01:31:02;23.36;35.12
63899;HTU21D;50070;-32.946;-60.652;2022-11-15T01:33:29;23.51;35.19
63899;HTU21D;50070;-32.946;-60.652;2022-11-15T01:35:56;23.58;34.92
63899;HTU21D;50070;-32.946;-60.652;2022-11-15T01:38:23;23.46;35.03
63899;HTU21D;50070;-32.946;-60.652;2022-11-15T01:40:50;23.36;35.58
63899;HTU21D;50070;-32.946;-60.652;2022-11-15T01:43:24;23.53;35.31
63899;HTU21D;50070;-32.946;-60.652;2022-11-15T01:46:11;23.39;35.55
63899;HTU21D;50070;-32.946;-60.652;2022-11-15T01:48:41;23.31;35.70
63899;HTU21D;50070;-32.946;-60.652;2022-11-15T01:51:09;23.23;35.85
63899;HTU21D;50070;-32.946;-60.652;2022-11-15T01:53:39;23.36;35.54
63899;HTU21D;50070;-32.946;-60.652;2022-11-15T01:56:15;23.26;35.55
63899;HTU21D;50070;-32.946;-60.652;2022-11-15T01:58:44;23.28;35.56
63899;HTU21D;50070;-32.946;-60.652;2022-11-15T02:01:12;23.25;35.70
63899;HTU21D;50070;-32.946;-60.652;2022-11-15T02:03:54;23.05;35.93
63899;HTU21D;50070;-32.946;-60.652;2022-11-15T02:06:22;23.21;35.66
63899;HTU21D;50070;-32.946;-60.652;2022-11-15T02:08:50;23.31;35.02
63899;HTU21D;50070;-32.946;-60.652;2022-11-15T02:11:17;23.11;35.57
63899;HTU21D;50070;-32.946;-60.652;2022-11-15T02:13:45;23.00;36.08
63899;HTU21D;50070;-32.946;-60.652;2022-11-15T02:21:42;23.12;35.98
63899;HTU21D;50070;-32.946;-60.652;2022-11-15T02:24:45;23.13;36.22
63899;HTU21D;50070;-32.946;-60.652;2022-11-15T02:36:14;22.79;36.95
63899;HTU21D;50070;-32.946;-60.652;2022-11-15T02:39:10;22.73;37.12
63899;HTU21D;50070;-32.946;-60.652;2022-11-15T02:41:46;22.66;37.26
63899;HTU21D;50070;-32.946;-60.652;2022-11-15T02:44:24;22.62;37.56
63899;HTU21D;50070;-32.946;-60.652;2022-11-15T02:47:01;22.50;38.11
63899;HTU21D;50070;-32.946;-60.652;2022-11-15T02:49:52;22.38;37.91
63899;HTU21D;50070;-32.946;-60.652;2022-11-15T02:52:23;22.51;37.94
63899;HTU21D;50070;-32.946;-60.652;2022-11-15T02:54:56;22.58;37.71
63899;HTU21D;50070;-32.946;-60.652;2022-11-15T03:00:18;22.39;37.98
63899;HTU21D;50070;-32.946;-60.652;2022-11-15T03:09:15;22.48;38.33
63899;HTU21D;50070;-32.946;-60.652;2022-11-15T03:11:49;22.33;38.70
63899;HTU21D;50070;-32.946;-60.652;2022-11-15T03:17:12;22.28;38.40
63899;HTU21D;50070;-32.946;-60.652;2022-11-15T03:19:47;22.19;38.43
63899;HTU21D;50070;-32.946;-60.652;2022-11-15T03:22:21;22.28;38.45
63899;HTU21D;50070;-32.946;-60.652;2022-11-15T03:24:53;22.38;37.98
63899;HTU21D;50070;-32.946;-60.652;2022-11-15T03:27:24;22.36;38.33
63899;HTU21D;50070;-32.946;-60.652;2022-11-15T03:29:56;22.32;38.27
63899;HTU21D;50070;-32.946;-60.652;2022-11-15T03:32:27;22.32;38.24
63899;HTU21D;50070;-32.946;-60.652;2022-11-15T03:34:58;22.13;38.67
63899;HTU21D;50070;-32.946;-60.652;2022-11-15T03:40:45;21.83;39.59
63899;HTU21D;50070;-32.946;-60.652;2022-11-15T03:46:34;21.84;39.42
63899;HTU21D;50070;-32.946;-60.652;2022-11-15T03:49:17;21.69;39.80
63899;HTU21D;50070;-32.946;-60.652;2022-11-15T03:51:46;21.69;39.72
63899;HTU21D;50070;-32.946;-60.652;2022-11-15T03:54:13;21.77;39.36
63899;HTU21D;50070;-32.946;-60.652;2022-11-15T03:56:40;21.81;39.53
63899;HTU21D;50070;-32.946;-60.652;2022-11-15T03:59:07;21.67;39.68
63899;HTU21D;50070;-32.946;-60.652;2022-11-15T04:01:33;21.72;39.47
63899;HTU21D;50070;-32.946;-60.652;2022-11-15T04:04:00;21.84;39.00
63899;HTU21D;50070;-32.946;-60.652;2022-11-15T04:06:27;21.57;39.86
63899;HTU21D;50070;-32.946;-60.652;2022-11-15T04:08:54;21.55;39.91
63899;HTU21D;50070;-32.946;-60.652;2022-11-15T04:11:20;21.60;39.78
63899;HTU21D;50070;-32.946;-60.652;2022-11-15T04:13:47;21.55;39.97
63899;HTU21D;50070;-32.946;-60.652;2022-11-15T04:16:14;21.48;40.19
63899;HTU21D;50070;-32.946;-60.652;2022-11-15T04:18:40;21.44;40.28
63899;HTU21D;50070;-32.946;-60.652;2022-11-15T04:21:08;21.54;40.14
63899;HTU21D;50070;-32.946;-60.652;2022-11-15T04:23:52;21.47;40.29
63899;HTU21D;50070;-32.946;-60.652;2022-11-15T04:26:21;21.47;40.46
63899;HTU21D;50070;-32.946;-60.652;2022-11-15T04:28:48;21.39;40.54
63899;HTU21D;50070;-32.946;-60.652;2022-11-15T04:31:32;21.36;40.49
63899;HTU21D;50070;-32.946;-60.652;2022-11-15T04:33:59;21.32;40.66
63899;HTU21D;50070;-32.946;-60.652;2022-11-15T04:36:26;21.27;40.65
63899;HTU21D;50070;-32.946;-60.652;2022-11-15T04:39:11;21.22;40.68
63899;HTU21D;50070;-32.946;-60.652;2022-11-15T04:41:37;21.15;40.83
63899;HTU21D;50070;-32.946;-60.652;2022-11-15T04:44:04;21.14;41.00
63899;HTU21D;50070;-32.946;-60.652;2022-11-15T04:46:32;21.15;40.84
63899;HTU21D;50070;-32.946;-60.652;2022-11-15T04:48:58;21.09;41.13
63899;HTU21D;50070;-32.946;-60.652;2022-11-15T04:51:25;21.02;41.03
63899;HTU21D;50070;-32.946;-60.652;2022-11-15T04:53:52;21.00;41.18
63899;HTU21D;50070;-32.946;-60.652;2022-11-15T04:56:19;21.02;41.22
63899;HTU21D;50070;-32.946;-60.652;2022-11-15T04:58:48;21.08;41.00
63899;HTU21D;50070;-32.946;-60.652;2022-11-15T05:01:15;20.90;41.38
63899;HTU21D;50070;-32.946;-60.652;2022-11-15T05:03:44;21.01;41.28
63899;HTU21D;50070;-32.946;-60.652;2022-11-15T05:06:30;21.06;41.21
63899;HTU21D;50070;-32.946;-60.652;2022-11-15T05:08:57;20.96;41.43
63899;HTU21D;50070;-32.946;-60.652;2022-11-15T05:11:23;20.78;41.95
63899;HTU21D;50070;-32.946;-60.652;2022-11-15T05:13:50;20.83;41.81
63899;HTU21D;50070;-32.946;-60.652;2022-11-15T05:16:17;20.70;42.03
63899;HTU21D;50070;-32.946;-60.652;2022-11-15T05:18:43;20.72;42.37
63899;HTU21D;50070;-32.946;-60.652;2022-11-15T05:21:13;20.66;42.06
63899;HTU21D;50070;-32.946;-60.652;2022-11-15T05:23:41;20.74;41.92
63899;HTU21D;50070;-32.946;-60.652;2022-11-15T05:26:08;20.54;42.16
63899;HTU21D;50070;-32.946;-60.652;2022-11-15T05:28:35;20.43;42.74
63899;HTU21D;50070;-32.946;-60.652;2022-11-15T05:31:08;20.53;42.29
63899;HTU21D;50070;-32.946;-60.652;2022-11-15T05:33:35;20.56;42.36
63899;HTU21D;50070;-32.946;-60.652;2022-11-15T05:38:38;20.46;42.48
63899;HTU21D;50070;-32.946;-60.652;2022-11-15T05:41:06;20.42;42.49
63899;HTU21D;50070;-32.946;-60.652;2022-11-15T05:43:34;20.39;42.75
63899;HTU21D;50070;-32.946;-60.652;2022-11-15T05:46:02;20.53;42.28
63899;HTU21D;50070;-32.946;-60.652;2022-11-15T05:48:31;20.44;42.29
63899;HTU21D;50070;-32.946;-60.652;2022-11-15T05:50:58;20.54;42.34
63899;HTU21D;50070;-32.946;-60.652;2022-11-15T05:53:26;20.74;42.00
63899;HTU21D;50070;-32.946;-60.652;2022-11-15T05:55:53;20.70;41.62
63899;HTU21D;50070;-32.946;-60.652;2022-11-15T05:58:20;20.57;42.05
63899;HTU21D;50070;-32.946;-60.652;2022-11-15T06:00:46;20.59;42.15
63899;HTU21D;50070;-32.946;-60.652;2022-11-15T06:03:13;20.60;42.16
63899;HTU21D;50070;-32.946;-60.652;2022-11-15T06:05:40;20.57;42.22
63899;HTU21D;50070;-32.946;-60.652;2022-11-15T06:08:07;20.55;42.34
63899;HTU21D;50070;-32.946;-60.652;2022-11-15T06:10:33;20.34;42.80
63899;HTU21D;50070;-32.946;-60.652;2022-11-15T06:13:02;20.32;42.81
63899;HTU21D;50070;-32.946;-60.652;2022-11-15T06:15:29;20.36;43.17
63899;HTU21D;50070;-32.946;-60.652;2022-11-15T06:17:59;20.36;42.52
63899;HTU21D;50070;-32.946;-60.652;2022-11-15T06:20:27;20.37;42.56
63899;HTU21D;50070;-32.946;-60.652;2022-11-15T06:22:58;20.32;42.58
63899;HTU21D;50070;-32.946;-60.652;2022-11-15T06:25:25;20.41;42.25
63899;HTU21D;50070;-32.946;-60.652;2022-11-15T06:27:53;20.34;42.92
63899;HTU21D;50070;-32.946;-60.652;2022-11-15T06:30:21;20.26;42.64
63899;HTU21D;50070;-32.946;-60.652;2022-11-15T06:32:47;20.18;42.90
63899;HTU21D;50070;-32.946;-60.652;2022-11-15T06:35:14;20.20;42.93
63899;HTU21D;50070;-32.946;-60.652;2022-11-15T06:37:41;20.17;42.82
63899;HTU21D;50070;-32.946;-60.652;2022-11-15T06:40:09;20.27;42.76
63899;HTU21D;50070;-32.946;-60.652;2022-11-15T06:42:36;20.05;43.15
63899;HTU21D;50070;-32.946;-60.652;2022-11-15T06:45:03;19.92;43.30
63899;HTU21D;50070;-32.946;-60.652;2022-11-15T06:47:30;19.84;43.11
63899;HTU21D;50070;-32.946;-60.652;2022-11-15T06:49:56;20.01;42.94
63899;HTU21D;50070;-32.946;-60.652;2022-11-15T06:52:23;20.25;42.52
63899;HTU21D;50070;-32.946;-60.652;2022-11-15T06:54:50;20.10;42.61
63899;HTU21D;50070;-32.946;-60.652;2022-11-15T06:57:16;20.13;42.65
63899;HTU21D;50070;-32.946;-60.652;2022-11-15T06:59:43;20.05;42.58
63899;HTU21D;50070;-32.946;-60.652;2022-11-15T07:02:13;20.11;42.31
63899;HTU21D;50070;-32.946;-60.652;2022-11-15T07:04:40;19.95;42.84
63899;HTU21D;50070;-32.946;-60.652;2022-11-15T07:07:06;19.87;42.93
63899;HTU21D;50070;-32.946;-60.652;2022-11-15T07:09:33;20.02;42.60
63899;HTU21D;50070;-32.946;-60.652;2022-11-15T07:12:00;19.87;42.76
63899;HTU21D;50070;-32.946;-60.652;2022-11-15T07:14:26;19.84;42.99
63899;HTU21D;50070;-32.946;-60.652;2022-11-15T07:16:53;19.61;43.54
63899;HTU21D;50070;-32.946;-60.652;2022-11-15T07:19:19;19.60;43.76
63899;HTU21D;50070;-32.946;-60.652;2022-11-15T07:21:46;19.76;43.28
63899;HTU21D;50070;-32.946;-60.652;2022-11-15T07:24:13;19.71;43.41
63899;HTU21D;50070;-32.946;-60.652;2022-11-15T07:26:40;19.69;43.63
63899;HTU21D;50070;-32.946;-60.652;2022-11-15T07:29:06;19.80;43.26
63899;HTU21D;50070;-32.946;-60.652;2022-11-15T07:31:33;19.86;43.29
63899;HTU21D;50070;-32.946;-60.652;2022-11-15T07:33:59;19.84;43.38
63899;HTU21D;50070;-32.946;-60.652;2022-11-15T07:36:26;19.66;43.71
63899;HTU21D;50070;-32.946;-60.652;2022-11-15T07:38:53;19.73;43.45
63899;HTU21D;50070;-32.946;-60.652;2022-11-15T07:41:19;19.70;43.42
63899;HTU21D;50070;-32.946;-60.652;2022-11-15T07:43:46;19.55;43.72
63899;HTU21D;50070;-32.946;-60.652;2022-11-15T07:46:13;19.69;43.36
63899;HTU21D;50070;-32.946;-60.652;2022-11-15T07:48:39;19.68;43.19
63899;HTU21D;50070;-32.946;-60.652;2022-11-15T07:51:06;19.61;43.43
63899;HTU21D;50070;-32.946;-60.652;2022-11-15T07:53:34;19.66;43.39
63899;HTU21D;50070;-32.946;-60.652;2022-11-15T07:56:00;19.53;43.58
63899;HTU21D;50070;-32.946;-60.652;2022-11-15T07:58:27;19.59;43.36
63899;HTU21D;50070;-32.946;-60.652;2022-11-15T08:00:53;19.56;43.42
63899;HTU21D;50070;-32.946;-60.652;2022-11-15T08:03:20;19.47;43.71
63899;HTU21D;50070;-32.946;-60.652;2022-11-15T08:05:51;19.62;43.32
63899;HTU21D;50070;-32.946;-60.652;2022-11-15T08:08:18;19.53;43.59
63899;HTU21D;50070;-32.946;-60.652;2022-11-15T08:10:45;19.63;43.21
63899;HTU21D;50070;-32.946;-60.652;2022-11-15T08:13:12;19.52;43.59
63899;HTU21D;50070;-32.946;-60.652;2022-11-15T08:15:39;19.46;43.74
63899;HTU21D;50070;-32.946;-60.652;2022-11-15T08:18:09;19.40;43.88
63899;HTU21D;50070;-32.946;-60.652;2022-11-15T08:20:36;19.50;43.77
63899;HTU21D;50070;-32.946;-60.652;2022-11-15T08:23:04;19.57;43.57
63899;HTU21D;50070;-32.946;-60.652;2022-11-15T08:25:32;19.48;43.92
63899;HTU21D;50070;-32.946;-60.652;2022-11-15T08:28:01;19.45;44.12
63899;HTU21D;50070;-32.946;-60.652;2022-11-15T08:30:29;19.27;44.56
63899;HTU21D;50070;-32.946;-60.652;2022-11-15T08:32:58;19.20;44.87
63899;HTU21D;50070;-32.946;-60.652;2022-11-15T08:35:25;19.08;45.52
63899;HTU21D;50070;-32.946;-60.652;2022-11-15T08:37:53;19.22;45.03
63899;HTU21D;50070;-32.946;-60.652;2022-11-15T08:40:20;19.24;44.80
63899;HTU21D;50070;-32.946;-60.652;2022-11-15T08:42:47;19.30;44.75
63899;HTU21D;50070;-32.946;-60.652;2022-11-15T08:45:15;19.25;44.78
63899;HTU21D;50070;-32.946;-60.652;2022-11-15T08:47:42;19.27;44.61
63899;HTU21D;50070;-32.946;-60.652;2022-11-15T08:50:09;19.28;44.62
63899;HTU21D;50070;-32.946;-60.652;2022-11-15T08:52:36;19.36;44.39
63899;HTU21D;50070;-32.946;-60.652;2022-11-15T08:55:02;19.42;44.37
63899;HTU21D;50070;-32.946;-60.652;2022-11-15T08:57:30;19.40;44.35
63899;HTU21D;50070;-32.946;-60.652;2022-11-15T08:59:57;19.14;45.16
63899;HTU21D;50070;-32.946;-60.652;2022-11-15T09:02:24;19.05;45.33
63899;HTU21D;50070;-32.946;-60.652;2022-11-15T09:04:50;19.14;45.17
63899;HTU21D;50070;-32.946;-60.652;2022-11-15T09:07:17;19.21;44.93
63899;HTU21D;50070;-32.946;-60.652;2022-11-15T09:09:43;19.16;45.12
63899;HTU21D;50070;-32.946;-60.652;2022-11-15T09:12:10;19.24;44.83
63899;HTU21D;50070;-32.946;-60.652;2022-11-15T09:14:37;19.12;45.32
63899;HTU21D;50070;-32.946;-60.652;2022-11-15T09:17:06;19.17;45.13
63899;HTU21D;50070;-32.946;-60.652;2022-11-15T09:19:33;19.13;45.07
63899;HTU21D;50070;-32.946;-60.652;2022-11-15T09:21:59;19.23;45.00
63899;HTU21D;50070;-32.946;-60.652;2022-11-15T09:24:26;19.12;45.36
63899;HTU21D;50070;-32.946;-60.652;2022-11-15T09:26:53;19.18;45.20
63899;HTU21D;50070;-32.946;-60.652;2022-11-15T09:29:19;19.18;45.09
63899;HTU21D;50070;-32.946;-60.652;2022-11-15T09:31:46;19.26;44.93
63899;HTU21D;50070;-32.946;-60.652;2022-11-15T09:34:13;19.39;44.67
63899;HTU21D;50070;-32.946;-60.652;2022-11-15T09:36:39;19.40;44.65
63899;HTU21D;50070;-32.946;-60.652;2022-11-15T09:39:06;19.43;44.35
63899;HTU21D;50070;-32.946;-60.652;2022-11-15T09:49:35;19.33;44.27
63899;HTU21D;50070;-32.946;-60.652;2022-11-15T09:52:02;19.50;43.99
63899;HTU21D;50070;-32.946;-60.652;2022-11-15T09:57:13;19.59;43.48
63899;HTU21D;50070;-32.946;-60.652;2022-11-15T09:59:56;19.59;43.38
63899;HTU21D;50070;-32.946;-60.652;2022-11-15T10:04:54;19.44;43.82
63899;HTU21D;50070;-32.946;-60.652;2022-11-15T10:08:12;19.42;43.60
63899;HTU21D;50070;-32.946;-60.652;2022-11-15T10:10:22;19.55;43.51
63899;HTU21D;50070;-32.946;-60.652;2022-11-15T10:12:51;19.69;43.37
63899;HTU21D;50070;-32.946;-60.652;2022-11-15T10:15:19;19.90;42.84
63899;HTU21D;50070;-32.946;-60.652;2022-11-15T10:18:17;19.82;42.78
63899;HTU21D;50070;-32.946;-60.652;2022-11-15T10:20:48;20.04;42.37
63899;HTU21D;50070;-32.946;-60.652;2022-11-15T10:23:18;20.06;42.71
63899;HTU21D;50070;-32.946;-60.652;2022-11-15T10:25:46;20.14;42.55
63899;HTU21D;50070;-32.946;-60.652;2022-11-15T10:28:21;19.89;42.93
63899;HTU21D;50070;-32.946;-60.652;2022-11-15T10:30:51;20.03;43.28
63899;HTU21D;50070;-32.946;-60.652;2022-11-15T10:33:36;20.06;43.19
63899;HTU21D;50070;-32.946;-60.652;2022-11-15T10:44:07;19.96;43.63
63899;HTU21D;50070;-32.946;-60.652;2022-11-15T10:46:37;20.24;43.46
63899;HTU21D;50070;-32.946;-60.652;2022-11-15T10:49:18;20.42;43.03
63899;HTU21D;50070;-32.946;-60.652;2022-11-15T10:51:57;20.40;43.11
63899;HTU21D;50070;-32.946;-60.652;2022-11-15T10:54:37;20.60;41.96
63899;HTU21D;50070;-32.946;-60.652;2022-11-15T10:57:12;20.78;41.99
63899;HTU21D;50070;-32.946;-60.652;2022-11-15T10:59:46;20.86;41.91
63899;HTU21D;50070;-32.946;-60.652;2022-11-15T11:02:38;20.94;41.47
63899;HTU21D;50070;-32.946;-60.652;2022-11-15T11:05:29;21.31;40.80
63899;HTU21D;50070;-32.946;-60.652;2022-11-15T11:08:03;21.49;40.20
63899;HTU21D;50070;-32.946;-60.652;2022-11-15T11:10:31;21.69;39.62
63899;HTU21D;50070;-32.946;-60.652;2022-11-15T11:13:25;21.94;39.36
63899;HTU21D;50070;-32.946;-60.652;2022-11-15T11:16:02;22.17;39.07
63899;HTU21D;50070;-32.946;-60.652;2022-11-15T11:18:47;22.35;38.56
63899;HTU21D;50070;-32.946;-60.652;2022-11-15T11:21:29;22.60;37.79
63899;HTU21D;50070;-32.946;-60.652;2022-11-15T11:24:10;22.86;37.34
63899;HTU21D;50070;-32.946;-60.652;2022-11-15T11:26:40;23.09;37.10
63899;HTU21D;50070;-32.946;-60.652;2022-11-15T11:32:19;23.44;36.37
63899;HTU21D;50070;-32.946;-60.652;2022-11-15T11:35:19;23.49;36.18
63899;HTU21D;50070;-32.946;-60.652;2022-11-15T11:37:53;23.61;35.87
63899;HTU21D;50070;-32.946;-60.652;2022-11-15T11:40:25;23.64;36.08
63899;HTU21D;50070;-32.946;-60.652;2022-11-15T11:48:51;23.92;35.26
63899;HTU21D;50070;-32.946;-60.652;2022-11-15T11:51:27;24.02;34.60
63899;HTU21D;50070;-32.946;-60.652;2022-11-15T11:54:20;24.12;34.70
63899;HTU21D;50070;-32.946;-60.652;2022-11-15T11:56:44;24.31;34.60
63899;HTU21D;50070;-32.946;-60.652;2022-11-15T12:01:45;24.36;34.33
63899;HTU21D;50070;-32.946;-60.652;2022-11-15T12:04:21;24.74;34.37
63899;HTU21D;50070;-32.946;-60.652;2022-11-15T12:09:30;24.93;33.69
63899;HTU21D;50070;-32.946;-60.652;2022-11-15T12:12:13;25.13;33.05
63899;HTU21D;50070;-32.946;-60.652;2022-11-15T12:14:56;25.33;32.67
63899;HTU21D;50070;-32.946;-60.652;2022-11-15T12:17:29;25.42;32.44
63899;HTU21D;50070;-32.946;-60.652;2022-11-15T12:20:06;25.40;32.48
63899;HTU21D;50070;-32.946;-60.652;2022-11-15T12:25:50;25.73;32.19
63899;HTU21D;50070;-32.946;-60.652;2022-11-15T12:33:58;26.13;30.04
63899;HTU21D;50070;-32.946;-60.652;2022-11-15T12:39:09;26.40;28.93
63899;HTU21D;50070;-32.946;-60.652;2022-11-15T12:41:39;26.52;28.82
63899;HTU21D;50070;-32.946;-60.652;2022-11-15T12:44:12;26.53;27.98
63899;HTU21D;50070;-32.946;-60.652;2022-11-15T12:52:07;27.29;27.65
63899;HTU21D;50070;-32.946;-60.652;2022-11-15T13:02:42;27.45;27.98
63899;HTU21D;50070;-32.946;-60.652;2022-11-15T13:12:56;27.80;27.62
63899;HTU21D;50070;-32.946;-60.652;2022-11-15T13:15:38;27.99;27.13
63899;HTU21D;50070;-32.946;-60.652;2022-11-15T13:18:39;28.23;26.73
63899;HTU21D;50070;-32.946;-60.652;2022-11-15T13:21:26;28.76;26.60
63899;HTU21D;50070;-32.946;-60.652;2022-11-15T13:24:16;28.79;26.39
63899;HTU21D;50070;-32.946;-60.652;2022-11-15T13:26:43;29.04;25.82
63899;HTU21D;50070;-32.946;-60.652;2022-11-15T13:29:18;29.08;25.85
63899;HTU21D;50070;-32.946;-60.652;2022-11-15T13:31:46;29.00;26.03
63899;HTU21D;50070;-32.946;-60.652;2022-11-15T13:36:47;28.80;25.56
63899;HTU21D;50070;-32.946;-60.652;2022-11-15T13:39:47;29.50;25.20
63899;HTU21D;50070;-32.946;-60.652;2022-11-15T13:42:15;30.41;23.66
63899;HTU21D;50070;-32.946;-60.652;2022-11-15T13:44:55;30.24;24.01
63899;HTU21D;50070;-32.946;-60.652;2022-11-15T13:47:25;30.61;22.25
63899;HTU21D;50070;-32.946;-60.652;2022-11-15T13:49:59;30.79;22.46
63899;HTU21D;50070;-32.946;-60.652;2022-11-15T13:52:33;30.66;22.60
63899;HTU21D;50070;-32.946;-60.652;2022-11-15T13:55:13;30.81;22.14
63899;HTU21D;50070;-32.946;-60.652;2022-11-15T13:57:45;30.80;20.92
63899;HTU21D;50070;-32.946;-60.652;2022-11-15T14:02:53;30.66;21.01
63899;HTU21D;50070;-32.946;-60.652;2022-11-15T14:05:22;30.49;21.17
63899;HTU21D;50070;-32.946;-60.652;2022-11-15T14:07:58;30.17;21.05
63899;HTU21D;50070;-32.946;-60.652;2022-11-15T14:10:36;30.47;21.34
63899;HTU21D;50070;-32.946;-60.652;2022-11-15T14:13:04;30.63;21.20
63899;HTU21D;50070;-32.946;-60.652;2022-11-15T14:15:39;30.92;21.79
63899;HTU21D;50070;-32.946;-60.652;2022-11-15T14:18:06;31.20;20.20
63899;HTU21D;50070;-32.946;-60.652;2022-11-15T14:20:35;31.58;19.70
63899;HTU21D;50070;-32.946;-60.652;2022-11-15T14:23:19;31.80;19.90
63899;HTU21D;50070;-32.946;-60.652;2022-11-15T14:25:56;31.59;19.25
63899;HTU21D;50070;-32.946;-60.652;2022-11-15T14:30:51;31.09;19.79
63899;HTU21D;50070;-32.946;-60.652;2022-11-15T14:33:34;31.00;19.15
63899;HTU21D;50070;-32.946;-60.652;2022-11-15T14:36:18;31.42;19.19
63899;HTU21D;50070;-32.946;-60.652;2022-11-15T14:38:46;31.64;17.74
63899;HTU21D;50070;-32.946;-60.652;2022-11-15T14:43:45;31.73;18.39
63899;HTU21D;50070;-32.946;-60.652;2022-11-15T14:46:11;31.80;17.52
63899;HTU21D;50070;-32.946;-60.652;2022-11-15T14:48:38;31.59;18.50
63899;HTU21D;50070;-32.946;-60.652;2022-11-15T14:51:13;31.57;17.77
63899;HTU21D;50070;-32.946;-60.652;2022-11-15T14:53:41;31.86;17.93
63899;HTU21D;50070;-32.946;-60.652;2022-11-15T14:56:09;32.32;17.54
63899;HTU21D;50070;-32.946;-60.652;2022-11-15T14:58:36;32.40;17.31
63899;HTU21D;50070;-32.946;-60.652;2022-11-15T15:01:12;31.87;17.74
63899;HTU21D;50070;-32.946;-60.652;2022-11-15T15:03:38;32.04;18.05
63899;HTU21D;50070;-32.946;-60.652;2022-11-15T15:06:06;31.96;18.51
63899;HTU21D;50070;-32.946;-60.652;2022-11-15T15:08:34;32.09;17.90
63899;HTU21D;50070;-32.946;-60.652;2022-11-15T15:11:00;31.92;18.38
63899;HTU21D;50070;-32.946;-60.652;2022-11-15T15:13:27;32.54;18.24
63899;HTU21D;50070;-32.946;-60.652;2022-11-15T15:15:56;32.52;17.26
63899;HTU21D;50070;-32.946;-60.652;2022-11-15T15:18:22;32.45;17.87
63899;HTU21D;50070;-32.946;-60.652;2022-11-15T15:20:56;32.07;17.54
63899;HTU21D;50070;-32.946;-60.652;2022-11-15T15:23:28;31.75;18.04
63899;HTU21D;50070;-32.946;-60.652;2022-11-15T15:25:57;31.94;18.13
63899;HTU21D;50070;-32.946;-60.652;2022-11-15T15:28:26;32.05;18.43
63899;HTU21D;50070;-32.946;-60.652;2022-11-15T15:30:53;32.52;17.70
63899;HTU21D;50070;-32.946;-60.652;2022-11-15T15:33:20;32.83;17.98
63899;HTU21D;50070;-32.946;-60.652;2022-11-15T15:35:46;32.53;16.93
63899;HTU21D;50070;-32.946;-60.652;2022-11-15T15:38:13;32.73;17.05
63899;HTU21D;50070;-32.946;-60.652;2022-11-15T15:40:41;33.04;16.74
63899;HTU21D;50070;-32.946;-60.652;2022-11-15T15:43:08;32.88;16.83
63899;HTU21D;50070;-32.946;-60.652;2022-11-15T15:45:37;32.88;16.89
63899;HTU21D;50070;-32.946;-60.652;2022-11-15T15:48:05;32.67;17.12
63899;HTU21D;50070;-32.946;-60.652;2022-11-15T15:50:35;33.52;17.12
63899;HTU21D;50070;-32.946;-60.652;2022-11-15T15:53:03;34.39;15.76
63899;HTU21D;50070;-32.946;-60.652;2022-11-15T15:55:30;34.14;15.44
63899;HTU21D;50070;-32.946;-60.652;2022-11-15T15:57:57;34.14;14.70
63899;HTU21D;50070;-32.946;-60.652;2022-11-15T16:00:27;34.20;15.04
63899;HTU21D;50070;-32.946;-60.652;2022-11-15T16:02:54;35.03;14.15
63899;HTU21D;50070;-32.946;-60.652;2022-11-15T16:05:21;34.27;14.29
63899;HTU21D;50070;-32.946;-60.652;2022-11-15T16:07:48;34.39;14.08
63899;HTU21D;50070;-32.946;-60.652;2022-11-15T16:10:31;33.78;14.71
63899;HTU21D;50070;-32.946;-60.652;2022-11-15T16:12:58;33.85;14.96
63899;HTU21D;50070;-32.946;-60.652;2022-11-15T16:15:26;33.85;15.00
63899;HTU21D;50070;-32.946;-60.652;2022-11-15T16:17:55;33.61;15.28
63899;HTU21D;50070;-32.946;-60.652;2022-11-15T16:20:36;33.72;14.90
63899;HTU21D;50070;-32.946;-60.652;2022-11-15T16:23:05;33.95;14.87
63899;HTU21D;50070;-32.946;-60.652;2022-11-15T16:25:44;34.06;14.26
63899;HTU21D;50070;-32.946;-60.652;2022-11-15T16:28:18;34.03;14.29
63899;HTU21D;50070;-32.946;-60.652;2022-11-15T16:30:46;34.12;14.07
63899;HTU21D;50070;-32.946;-60.652;2022-11-15T16:33:12;34.40;14.52
63899;HTU21D;50070;-32.946;-60.652;2022-11-15T16:35:39;34.34;13.88
63899;HTU21D;50070;-32.946;-60.652;2022-11-15T16:38:12;34.36;14.35
63899;HTU21D;50070;-32.946;-60.652;2022-11-15T16:40:39;34.11;14.20
63899;HTU21D;50070;-32.946;-60.652;2022-11-15T16:43:05;34.29;14.33
63899;HTU21D;50070;-32.946;-60.652;2022-11-15T16:45:33;34.11;14.18
63899;HTU21D;50070;-32.946;-60.652;2022-11-15T16:48:00;34.07;13.99
63899;HTU21D;50070;-32.946;-60.652;2022-11-15T16:50:29;33.77;13.84